sensor_id;sensor_type;location;lat;lon;timestamp;P1;durP1;ratioP1;P2;durP2;ratioP2
36449;SDS011;22475;51.390;7.180;2023-02-15T00:01:25;6.47;;;5.38;;
36449;SDS011;22475;51.390;7.180;2023-02-15T00:03:52;10.20;;;7.05;;
36449;SDS011;22475;51.390;7.180;2023-02-15T00:06:19;9.23;;;6.80;;
36449;SDS011;22475;51.390;7.180;2023-02-15T00:08:46;13.65;;;8.55;;
36449;SDS011;22475;51.390;7.180;2023-02-15T00:11:15;15.80;;;8.77;;
36449;SDS011;22475;51.390;7.180;2023-02-15T00:14:03;10.27;;;7.82;;
36449;SDS011;22475;51.390;7.180;2023-02-15T00:16:30;21.52;;;10.52;;
36449;SDS011;22475;51.390;7.180;2023-02-15T00:18:57;14.07;;;9.18;;
36449;SDS011;22475;51.390;7.180;2023-02-15T00:21:26;12.75;;;7.60;;
36449;SDS011;22475;51.390;7.180;2023-02-15T00:23:53;8.55;;;5.22;;
36449;SDS011;22475;51.390;7.180;2023-02-15T00:26:21;8.43;;;5.43;;
36449;SDS011;22475;51.390;7.180;2023-02-15T00:28:48;9.82;;;7.28;;
36449;SDS011;22475;51.390;7.180;2023-02-15T00:31:15;11.57;;;7.68;;
36449;SDS011;22475;51.390;7.180;2023-02-15T00:33:42;14.60;;;8.55;;
36449;SDS011;22475;51.390;7.180;2023-02-15T00:36:09;16.92;;;8.55;;
36449;SDS011;22475;51.390;7.180;2023-02-15T00:38:36;11.35;;;6.22;;
36449;SDS011;22475;51.390;7.180;2023-02-15T00:41:04;14.35;;;7.68;;
36449;SDS011;22475;51.390;7.180;2023-02-15T00:43:33;12.45;;;7.63;;
36449;SDS011;22475;51.390;7.180;2023-02-15T00:46:01;11.35;;;6.85;;
36449;SDS011;22475;51.390;7.180;2023-02-15T00:48:28;17.67;;;9.93;;
36449;SDS011;22475;51.390;7.180;2023-02-15T00:50:57;10.77;;;6.32;;
36449;SDS011;22475;51.390;7.180;2023-02-15T00:53:25;7.10;;;5.75;;
36449;SDS011;22475;51.390;7.180;2023-02-15T00:55:52;8.18;;;5.53;;
36449;SDS011;22475;51.390;7.180;2023-02-15T00:58:19;12.82;;;7.90;;
36449;SDS011;22475;51.390;7.180;2023-02-15T01:00:47;13.23;;;7.05;;
36449;SDS011;22475;51.390;7.180;2023-02-15T01:03:16;13.85;;;8.55;;
36449;SDS011;22475;51.390;7.180;2023-02-15T01:05:43;9.23;;;6.18;;
36449;SDS011;22475;51.390;7.180;2023-02-15T01:08:10;8.40;;;6.32;;
36449;SDS011;22475;51.390;7.180;2023-02-15T01:10:37;14.80;;;8.32;;
36449;SDS011;22475;51.390;7.180;2023-02-15T01:13:04;9.35;;;6.22;;
36449;SDS011;22475;51.390;7.180;2023-02-15T01:15:33;16.90;;;9.02;;
36449;SDS011;22475;51.390;7.180;2023-02-15T01:18:02;14.68;;;8.60;;
36449;SDS011;22475;51.390;7.180;2023-02-15T01:20:29;11.60;;;7.35;;
36449;SDS011;22475;51.390;7.180;2023-02-15T01:22:56;17.45;;;9.43;;
36449;SDS011;22475;51.390;7.180;2023-02-15T01:25:24;18.17;;;9.50;;
36449;SDS011;22475;51.390;7.180;2023-02-15T01:27:51;17.08;;;10.15;;
36449;SDS011;22475;51.390;7.180;2023-02-15T01:30:18;15.23;;;9.48;;
36449;SDS011;22475;51.390;7.180;2023-02-15T01:32:45;14.48;;;8.00;;
36449;SDS011;22475;51.390;7.180;2023-02-15T01:35:13;12.52;;;8.65;;
36449;SDS011;22475;51.390;7.180;2023-02-15T01:37:40;12.18;;;8.02;;
36449;SDS011;22475;51.390;7.180;2023-02-15T01:40:10;19.77;;;9.93;;
36449;SDS011;22475;51.390;7.180;2023-02-15T01:42:39;8.32;;;5.72;;
36449;SDS011;22475;51.390;7.180;2023-02-15T01:45:13;25.40;;;12.30;;
36449;SDS011;22475;51.390;7.180;2023-02-15T01:47:48;22.73;;;10.67;;
36449;SDS011;22475;51.390;7.180;2023-02-15T01:55:17;9.10;;;5.95;;
36449;SDS011;22475;51.390;7.180;2023-02-15T01:57:45;19.38;;;9.15;;
36449;SDS011;22475;51.390;7.180;2023-02-15T02:00:13;14.23;;;6.75;;
36449;SDS011;22475;51.390;7.180;2023-02-15T02:02:42;11.65;;;7.35;;
36449;SDS011;22475;51.390;7.180;2023-02-15T02:05:10;24.48;;;12.18;;
36449;SDS011;22475;51.390;7.180;2023-02-15T02:07:39;10.23;;;7.07;;
36449;SDS011;22475;51.390;7.180;2023-02-15T02:10:10;11.95;;;7.45;;
36449;SDS011;22475;51.390;7.180;2023-02-15T02:12:39;12.85;;;7.70;;
36449;SDS011;22475;51.390;7.180;2023-02-15T02:15:08;14.00;;;7.57;;
36449;SDS011;22475;51.390;7.180;2023-02-15T02:17:37;20.63;;;10.68;;
36449;SDS011;22475;51.390;7.180;2023-02-15T02:20:22;17.63;;;9.57;;
36449;SDS011;22475;51.390;7.180;2023-02-15T02:23:04;11.50;;;7.72;;
36449;SDS011;22475;51.390;7.180;2023-02-15T02:29:05;12.00;;;6.68;;
36449;SDS011;22475;51.390;7.180;2023-02-15T02:32:07;12.65;;;8.88;;
36449;SDS011;22475;51.390;7.180;2023-02-15T02:35:03;10.10;;;6.50;;
36449;SDS011;22475;51.390;7.180;2023-02-15T02:37:37;12.30;;;8.55;;
36449;SDS011;22475;51.390;7.180;2023-02-15T02:40:13;19.88;;;11.50;;
36449;SDS011;22475;51.390;7.180;2023-02-15T02:42:48;17.70;;;9.40;;
36449;SDS011;22475;51.390;7.180;2023-02-15T02:45:24;19.85;;;10.05;;
36449;SDS011;22475;51.390;7.180;2023-02-15T02:47:55;13.48;;;7.50;;
36449;SDS011;22475;51.390;7.180;2023-02-15T02:50:29;15.27;;;8.07;;
36449;SDS011;22475;51.390;7.180;2023-02-15T02:52:57;13.45;;;8.60;;
36449;SDS011;22475;51.390;7.180;2023-02-15T02:55:27;18.55;;;10.38;;
36449;SDS011;22475;51.390;7.180;2023-02-15T02:57:59;15.48;;;10.65;;
36449;SDS011;22475;51.390;7.180;2023-02-15T03:00:31;15.20;;;9.77;;
36449;SDS011;22475;51.390;7.180;2023-02-15T03:03:02;13.88;;;8.30;;
36449;SDS011;22475;51.390;7.180;2023-02-15T03:05:34;17.17;;;10.55;;
36449;SDS011;22475;51.390;7.180;2023-02-15T03:08:04;20.42;;;11.18;;
36449;SDS011;22475;51.390;7.180;2023-02-15T03:13:02;11.55;;;7.47;;
36449;SDS011;22475;51.390;7.180;2023-02-15T03:15:29;17.38;;;10.02;;
36449;SDS011;22475;51.390;7.180;2023-02-15T03:18:11;17.33;;;9.88;;
36449;SDS011;22475;51.390;7.180;2023-02-15T03:20:41;17.50;;;9.77;;
36449;SDS011;22475;51.390;7.180;2023-02-15T03:23:10;22.65;;;13.25;;
36449;SDS011;22475;51.390;7.180;2023-02-15T03:25:40;20.85;;;9.43;;
36449;SDS011;22475;51.390;7.180;2023-02-15T03:28:11;9.50;;;6.95;;
36449;SDS011;22475;51.390;7.180;2023-02-15T03:30:42;21.17;;;11.55;;
36449;SDS011;22475;51.390;7.180;2023-02-15T03:33:11;20.42;;;11.10;;
36449;SDS011;22475;51.390;7.180;2023-02-15T03:35:43;15.10;;;8.90;;
36449;SDS011;22475;51.390;7.180;2023-02-15T03:38:17;23.30;;;12.35;;
36449;SDS011;22475;51.390;7.180;2023-02-15T03:40:48;20.40;;;11.32;;
36449;SDS011;22475;51.390;7.180;2023-02-15T03:43:34;9.07;;;6.72;;
36449;SDS011;22475;51.390;7.180;2023-02-15T03:46:12;19.65;;;11.18;;
36449;SDS011;22475;51.390;7.180;2023-02-15T03:48:44;19.75;;;12.23;;
36449;SDS011;22475;51.390;7.180;2023-02-15T03:51:18;21.83;;;10.70;;
36449;SDS011;22475;51.390;7.180;2023-02-15T03:54:00;10.90;;;7.47;;
36449;SDS011;22475;51.390;7.180;2023-02-15T03:56:30;21.30;;;9.68;;
36449;SDS011;22475;51.390;7.180;2023-02-15T03:58:59;15.27;;;7.97;;
36449;SDS011;22475;51.390;7.180;2023-02-15T04:01:45;11.73;;;7.68;;
36449;SDS011;22475;51.390;7.180;2023-02-15T04:04:24;18.80;;;8.93;;
36449;SDS011;22475;51.390;7.180;2023-02-15T04:06:59;13.45;;;7.72;;
36449;SDS011;22475;51.390;7.180;2023-02-15T04:09:26;14.00;;;8.38;;
36449;SDS011;22475;51.390;7.180;2023-02-15T04:12:11;17.10;;;8.77;;
36449;SDS011;22475;51.390;7.180;2023-02-15T04:14:38;12.07;;;7.90;;
36449;SDS011;22475;51.390;7.180;2023-02-15T04:17:22;13.43;;;7.78;;
36449;SDS011;22475;51.390;7.180;2023-02-15T04:19:49;11.57;;;8.07;;
36449;SDS011;22475;51.390;7.180;2023-02-15T04:22:34;11.55;;;7.95;;
36449;SDS011;22475;51.390;7.180;2023-02-15T04:25:19;15.13;;;8.93;;
36449;SDS011;22475;51.390;7.180;2023-02-15T04:27:48;11.63;;;6.90;;
36449;SDS011;22475;51.390;7.180;2023-02-15T04:30:16;13.55;;;7.03;;
36449;SDS011;22475;51.390;7.180;2023-02-15T04:32:45;12.65;;;8.73;;
36449;SDS011;22475;51.390;7.180;2023-02-15T04:35:12;16.60;;;10.52;;
36449;SDS011;22475;51.390;7.180;2023-02-15T04:37:40;12.38;;;7.43;;
36449;SDS011;22475;51.390;7.180;2023-02-15T04:40:09;17.88;;;9.85;;
36449;SDS011;22475;51.390;7.180;2023-02-15T04:42:37;15.73;;;9.32;;
36449;SDS011;22475;51.390;7.180;2023-02-15T04:45:04;20.52;;;10.70;;
36449;SDS011;22475;51.390;7.180;2023-02-15T04:47:31;17.33;;;9.82;;
36449;SDS011;22475;51.390;7.180;2023-02-15T04:49:58;8.75;;;6.15;;
36449;SDS011;22475;51.390;7.180;2023-02-15T04:52:25;21.63;;;11.00;;
36449;SDS011;22475;51.390;7.180;2023-02-15T04:54:53;17.45;;;9.98;;
36449;SDS011;22475;51.390;7.180;2023-02-15T04:57:20;20.45;;;12.00;;
36449;SDS011;22475;51.390;7.180;2023-02-15T04:59:46;10.38;;;7.13;;
36449;SDS011;22475;51.390;7.180;2023-02-15T05:02:13;17.80;;;9.93;;
36449;SDS011;22475;51.390;7.180;2023-02-15T05:04:40;19.73;;;10.63;;
36449;SDS011;22475;51.390;7.180;2023-02-15T05:07:07;14.82;;;9.40;;
36449;SDS011;22475;51.390;7.180;2023-02-15T05:09:33;16.42;;;9.43;;
36449;SDS011;22475;51.390;7.180;2023-02-15T05:12:01;11.85;;;7.32;;
36449;SDS011;22475;51.390;7.180;2023-02-15T05:14:28;12.45;;;7.85;;
36449;SDS011;22475;51.390;7.180;2023-02-15T05:16:55;25.38;;;12.55;;
36449;SDS011;22475;51.390;7.180;2023-02-15T05:19:23;22.88;;;11.98;;
36449;SDS011;22475;51.390;7.180;2023-02-15T05:21:50;16.58;;;9.35;;
36449;SDS011;22475;51.390;7.180;2023-02-15T05:24:17;18.25;;;9.32;;
36449;SDS011;22475;51.390;7.180;2023-02-15T05:27:02;16.23;;;9.23;;
36449;SDS011;22475;51.390;7.180;2023-02-15T05:29:47;20.58;;;10.02;;
36449;SDS011;22475;51.390;7.180;2023-02-15T05:32:13;14.90;;;9.75;;
36449;SDS011;22475;51.390;7.180;2023-02-15T05:34:40;29.23;;;12.40;;
36449;SDS011;22475;51.390;7.180;2023-02-15T05:37:07;15.98;;;8.40;;
36449;SDS011;22475;51.390;7.180;2023-02-15T05:39:34;14.07;;;8.60;;
36449;SDS011;22475;51.390;7.180;2023-02-15T05:42:02;16.00;;;9.57;;
36449;SDS011;22475;51.390;7.180;2023-02-15T05:44:29;9.70;;;7.10;;
36449;SDS011;22475;51.390;7.180;2023-02-15T05:46:56;23.02;;;12.52;;
36449;SDS011;22475;51.390;7.180;2023-02-15T05:49:23;16.55;;;9.68;;
36449;SDS011;22475;51.390;7.180;2023-02-15T05:51:49;14.25;;;8.88;;
36449;SDS011;22475;51.390;7.180;2023-02-15T05:54:16;24.75;;;12.05;;
36449;SDS011;22475;51.390;7.180;2023-02-15T05:56:43;12.55;;;8.07;;
36449;SDS011;22475;51.390;7.180;2023-02-15T05:59:11;20.05;;;10.98;;
36449;SDS011;22475;51.390;7.180;2023-02-15T06:01:38;14.93;;;8.88;;
36449;SDS011;22475;51.390;7.180;2023-02-15T06:04:04;28.05;;;12.98;;
36449;SDS011;22475;51.390;7.180;2023-02-15T06:06:31;19.95;;;11.02;;
36449;SDS011;22475;51.390;7.180;2023-02-15T06:08:59;15.32;;;9.32;;
36449;SDS011;22475;51.390;7.180;2023-02-15T06:11:26;18.92;;;9.98;;
36449;SDS011;22475;51.390;7.180;2023-02-15T06:13:53;16.25;;;9.93;;
36449;SDS011;22475;51.390;7.180;2023-02-15T06:16:21;16.77;;;9.48;;
36449;SDS011;22475;51.390;7.180;2023-02-15T06:18:47;11.18;;;7.50;;
36449;SDS011;22475;51.390;7.180;2023-02-15T06:21:14;22.73;;;11.05;;
36449;SDS011;22475;51.390;7.180;2023-02-15T06:23:41;19.08;;;10.38;;
36449;SDS011;22475;51.390;7.180;2023-02-15T06:26:08;17.02;;;9.63;;
36449;SDS011;22475;51.390;7.180;2023-02-15T06:28:34;26.70;;;11.10;;
36449;SDS011;22475;51.390;7.180;2023-02-15T06:31:02;22.15;;;11.75;;
36449;SDS011;22475;51.390;7.180;2023-02-15T06:33:30;26.05;;;12.05;;
36449;SDS011;22475;51.390;7.180;2023-02-15T06:35:58;18.20;;;10.60;;
36449;SDS011;22475;51.390;7.180;2023-02-15T06:38:25;27.92;;;13.18;;
36449;SDS011;22475;51.390;7.180;2023-02-15T06:40:52;14.60;;;8.85;;
36449;SDS011;22475;51.390;7.180;2023-02-15T06:43:19;28.95;;;11.90;;
36449;SDS011;22475;51.390;7.180;2023-02-15T06:45:45;13.32;;;8.75;;
36449;SDS011;22475;51.390;7.180;2023-02-15T06:48:12;23.25;;;12.05;;
36449;SDS011;22475;51.390;7.180;2023-02-15T06:50:40;22.58;;;12.75;;
36449;SDS011;22475;51.390;7.180;2023-02-15T06:53:07;11.32;;;7.43;;
36449;SDS011;22475;51.390;7.180;2023-02-15T06:55:34;25.80;;;11.98;;
36449;SDS011;22475;51.390;7.180;2023-02-15T06:58:01;19.35;;;10.10;;
36449;SDS011;22475;51.390;7.180;2023-02-15T07:00:27;22.15;;;12.50;;
36449;SDS011;22475;51.390;7.180;2023-02-15T07:02:54;21.30;;;10.18;;
36449;SDS011;22475;51.390;7.180;2023-02-15T07:05:22;22.98;;;12.48;;
36449;SDS011;22475;51.390;7.180;2023-02-15T07:07:50;20.00;;;10.63;;
36449;SDS011;22475;51.390;7.180;2023-02-15T07:10:17;25.15;;;12.30;;
36449;SDS011;22475;51.390;7.180;2023-02-15T07:12:44;24.08;;;11.35;;
36449;SDS011;22475;51.390;7.180;2023-02-15T07:15:11;23.52;;;11.73;;
36449;SDS011;22475;51.390;7.180;2023-02-15T07:17:40;23.02;;;12.90;;
36449;SDS011;22475;51.390;7.180;2023-02-15T07:20:08;24.55;;;13.60;;
36449;SDS011;22475;51.390;7.180;2023-02-15T07:22:36;17.67;;;10.88;;
36449;SDS011;22475;51.390;7.180;2023-02-15T07:25:06;27.48;;;13.77;;
36449;SDS011;22475;51.390;7.180;2023-02-15T07:27:34;28.83;;;13.55;;
36449;SDS011;22475;51.390;7.180;2023-02-15T07:30:02;23.25;;;12.80;;
36449;SDS011;22475;51.390;7.180;2023-02-15T07:32:30;21.48;;;11.45;;
36449;SDS011;22475;51.390;7.180;2023-02-15T07:34:58;21.05;;;10.65;;
36449;SDS011;22475;51.390;7.180;2023-02-15T07:37:25;24.30;;;10.60;;
36449;SDS011;22475;51.390;7.180;2023-02-15T07:39:52;27.85;;;12.40;;
36449;SDS011;22475;51.390;7.180;2023-02-15T07:42:21;26.55;;;12.93;;
36449;SDS011;22475;51.390;7.180;2023-02-15T07:44:47;30.42;;;13.88;;
36449;SDS011;22475;51.390;7.180;2023-02-15T07:47:14;24.42;;;11.05;;
36449;SDS011;22475;51.390;7.180;2023-02-15T07:49:41;22.55;;;11.18;;
36449;SDS011;22475;51.390;7.180;2023-02-15T07:52:07;29.48;;;12.02;;
36449;SDS011;22475;51.390;7.180;2023-02-15T07:54:34;21.65;;;11.40;;
36449;SDS011;22475;51.390;7.180;2023-02-15T07:57:01;14.73;;;8.40;;
36449;SDS011;22475;51.390;7.180;2023-02-15T07:59:29;22.85;;;11.45;;
36449;SDS011;22475;51.390;7.180;2023-02-15T08:01:56;23.00;;;11.38;;
36449;SDS011;22475;51.390;7.180;2023-02-15T08:04:23;21.10;;;11.95;;
36449;SDS011;22475;51.390;7.180;2023-02-15T08:06:51;27.50;;;11.50;;
36449;SDS011;22475;51.390;7.180;2023-02-15T08:09:19;29.95;;;12.75;;
36449;SDS011;22475;51.390;7.180;2023-02-15T08:11:46;17.00;;;9.80;;
36449;SDS011;22475;51.390;7.180;2023-02-15T08:14:14;16.00;;;9.70;;
36449;SDS011;22475;51.390;7.180;2023-02-15T08:16:43;15.32;;;10.38;;
36449;SDS011;22475;51.390;7.180;2023-02-15T08:19:12;19.65;;;10.90;;
36449;SDS011;22475;51.390;7.180;2023-02-15T08:21:40;22.45;;;11.07;;
36449;SDS011;22475;51.390;7.180;2023-02-15T08:24:08;13.65;;;8.77;;
36449;SDS011;22475;51.390;7.180;2023-02-15T08:26:37;23.30;;;11.77;;
36449;SDS011;22475;51.390;7.180;2023-02-15T08:29:05;19.02;;;10.25;;
36449;SDS011;22475;51.390;7.180;2023-02-15T08:31:32;21.20;;;11.45;;
36449;SDS011;22475;51.390;7.180;2023-02-15T08:34:00;14.23;;;8.68;;
36449;SDS011;22475;51.390;7.180;2023-02-15T08:36:28;14.80;;;7.95;;
36449;SDS011;22475;51.390;7.180;2023-02-15T08:38:56;19.90;;;10.32;;
36449;SDS011;22475;51.390;7.180;2023-02-15T08:41:24;29.27;;;11.85;;
36449;SDS011;22475;51.390;7.180;2023-02-15T08:43:53;20.65;;;10.57;;
36449;SDS011;22475;51.390;7.180;2023-02-15T08:46:21;18.02;;;9.65;;
36449;SDS011;22475;51.390;7.180;2023-02-15T08:48:49;13.13;;;7.80;;
36449;SDS011;22475;51.390;7.180;2023-02-15T08:51:19;17.98;;;10.38;;
36449;SDS011;22475;51.390;7.180;2023-02-15T08:53:47;20.65;;;10.80;;
36449;SDS011;22475;51.390;7.180;2023-02-15T08:56:16;12.52;;;8.18;;
36449;SDS011;22475;51.390;7.180;2023-02-15T08:58:43;19.67;;;10.65;;
36449;SDS011;22475;51.390;7.180;2023-02-15T09:01:11;17.30;;;8.27;;
36449;SDS011;22475;51.390;7.180;2023-02-15T09:03:38;11.50;;;7.47;;
36449;SDS011;22475;51.390;7.180;2023-02-15T09:06:05;25.95;;;12.15;;
36449;SDS011;22475;51.390;7.180;2023-02-15T09:08:34;24.55;;;10.88;;
36449;SDS011;22475;51.390;7.180;2023-02-15T09:11:05;22.73;;;10.63;;
36449;SDS011;22475;51.390;7.180;2023-02-15T09:13:33;11.27;;;6.70;;
36449;SDS011;22475;51.390;7.180;2023-02-15T09:16:01;13.73;;;7.22;;
36449;SDS011;22475;51.390;7.180;2023-02-15T09:18:29;14.70;;;7.35;;
36449;SDS011;22475;51.390;7.180;2023-02-15T09:21:03;13.98;;;7.00;;
36449;SDS011;22475;51.390;7.180;2023-02-15T09:23:31;13.43;;;7.45;;
36449;SDS011;22475;51.390;7.180;2023-02-15T09:26:02;11.85;;;7.43;;
36449;SDS011;22475;51.390;7.180;2023-02-15T09:28:30;13.82;;;7.93;;
36449;SDS011;22475;51.390;7.180;2023-02-15T09:31:03;13.85;;;7.07;;
36449;SDS011;22475;51.390;7.180;2023-02-15T09:33:35;10.10;;;6.93;;
36449;SDS011;22475;51.390;7.180;2023-02-15T09:36:04;20.67;;;9.80;;
36449;SDS011;22475;51.390;7.180;2023-02-15T09:38:31;17.90;;;9.77;;
36449;SDS011;22475;51.390;7.180;2023-02-15T09:41:03;17.13;;;7.63;;
36449;SDS011;22475;51.390;7.180;2023-02-15T09:43:42;13.85;;;7.88;;
36449;SDS011;22475;51.390;7.180;2023-02-15T09:46:21;10.43;;;6.50;;
36449;SDS011;22475;51.390;7.180;2023-02-15T09:49:11;15.15;;;8.63;;
36449;SDS011;22475;51.390;7.180;2023-02-15T09:54:48;12.18;;;6.53;;
36449;SDS011;22475;51.390;7.180;2023-02-15T09:57:29;8.05;;;6.05;;
36449;SDS011;22475;51.390;7.180;2023-02-15T10:00:02;18.13;;;8.57;;
36449;SDS011;22475;51.390;7.180;2023-02-15T10:02:44;8.88;;;6.63;;
36449;SDS011;22475;51.390;7.180;2023-02-15T10:05:33;19.27;;;9.23;;
36449;SDS011;22475;51.390;7.180;2023-02-15T10:08:21;14.57;;;7.22;;
36449;SDS011;22475;51.390;7.180;2023-02-15T10:11:05;18.40;;;8.48;;
36449;SDS011;22475;51.390;7.180;2023-02-15T10:14:01;21.35;;;8.70;;
36449;SDS011;22475;51.390;7.180;2023-02-15T10:16:40;13.95;;;8.18;;
36449;SDS011;22475;51.390;7.180;2023-02-15T10:19:16;17.55;;;8.82;;
36449;SDS011;22475;51.390;7.180;2023-02-15T10:21:53;20.67;;;8.50;;
36449;SDS011;22475;51.390;7.180;2023-02-15T10:24:33;15.80;;;6.93;;
36449;SDS011;22475;51.390;7.180;2023-02-15T10:27:11;7.70;;;5.70;;
36449;SDS011;22475;51.390;7.180;2023-02-15T10:29:42;10.02;;;5.85;;
36449;SDS011;22475;51.390;7.180;2023-02-15T10:32:21;13.00;;;7.35;;
36449;SDS011;22475;51.390;7.180;2023-02-15T10:34:51;11.93;;;6.80;;
36449;SDS011;22475;51.390;7.180;2023-02-15T10:37:24;7.20;;;5.20;;
36449;SDS011;22475;51.390;7.180;2023-02-15T10:40:10;8.93;;;5.13;;
36449;SDS011;22475;51.390;7.180;2023-02-15T10:42:48;9.60;;;6.00;;
36449;SDS011;22475;51.390;7.180;2023-02-15T10:50:37;10.32;;;5.53;;
36449;SDS011;22475;51.390;7.180;2023-02-15T10:56:19;12.50;;;6.78;;
36449;SDS011;22475;51.390;7.180;2023-02-15T10:58:55;11.32;;;6.68;;
36449;SDS011;22475;51.390;7.180;2023-02-15T11:01:35;10.70;;;6.00;;
36449;SDS011;22475;51.390;7.180;2023-02-15T11:04:11;16.88;;;7.90;;
36449;SDS011;22475;51.390;7.180;2023-02-15T11:06:54;8.27;;;4.80;;
36449;SDS011;22475;51.390;7.180;2023-02-15T11:09:29;7.20;;;5.20;;
36449;SDS011;22475;51.390;7.180;2023-02-15T11:12:02;17.23;;;7.00;;
36449;SDS011;22475;51.390;7.180;2023-02-15T11:14:35;8.85;;;5.15;;
36449;SDS011;22475;51.390;7.180;2023-02-15T11:17:09;7.60;;;5.03;;
36449;SDS011;22475;51.390;7.180;2023-02-15T11:19:39;10.35;;;6.30;;
36449;SDS011;22475;51.390;7.180;2023-02-15T11:22:10;7.65;;;4.72;;
36449;SDS011;22475;51.390;7.180;2023-02-15T11:24:39;11.15;;;5.38;;
36449;SDS011;22475;51.390;7.180;2023-02-15T11:27:15;9.50;;;5.10;;
36449;SDS011;22475;51.390;7.180;2023-02-15T11:29:48;4.78;;;4.28;;
36449;SDS011;22475;51.390;7.180;2023-02-15T11:32:23;18.80;;;6.35;;
36449;SDS011;22475;51.390;7.180;2023-02-15T11:34:53;6.05;;;4.95;;
36449;SDS011;22475;51.390;7.180;2023-02-15T11:37:24;8.45;;;4.78;;
36449;SDS011;22475;51.390;7.180;2023-02-15T11:39:56;7.80;;;4.50;;
36449;SDS011;22475;51.390;7.180;2023-02-15T11:42:25;5.85;;;4.30;;
36449;SDS011;22475;51.390;7.180;2023-02-15T11:44:56;8.93;;;4.43;;
36449;SDS011;22475;51.390;7.180;2023-02-15T11:47:29;5.78;;;4.38;;
36449;SDS011;22475;51.390;7.180;2023-02-15T11:49:56;11.05;;;6.45;;
36449;SDS011;22475;51.390;7.180;2023-02-15T11:52:23;6.45;;;4.15;;
36449;SDS011;22475;51.390;7.180;2023-02-15T11:54:50;7.30;;;5.05;;
36449;SDS011;22475;51.390;7.180;2023-02-15T11:57:19;5.63;;;3.67;;
36449;SDS011;22475;51.390;7.180;2023-02-15T11:59:52;7.72;;;4.45;;
36449;SDS011;22475;51.390;7.180;2023-02-15T12:02:26;6.90;;;4.40;;
36449;SDS011;22475;51.390;7.180;2023-02-15T12:04:57;8.77;;;4.75;;
36449;SDS011;22475;51.390;7.180;2023-02-15T12:07:27;5.40;;;3.95;;
36449;SDS011;22475;51.390;7.180;2023-02-15T12:10:00;8.23;;;4.00;;
36449;SDS011;22475;51.390;7.180;2023-02-15T12:12:32;6.28;;;3.13;;
36449;SDS011;22475;51.390;7.180;2023-02-15T12:15:00;4.05;;;3.53;;
36449;SDS011;22475;51.390;7.180;2023-02-15T12:17:29;7.65;;;3.53;;
36449;SDS011;22475;51.390;7.180;2023-02-15T12:20:01;7.27;;;4.10;;
36449;SDS011;22475;51.390;7.180;2023-02-15T12:22:31;9.35;;;5.43;;
36449;SDS011;22475;51.390;7.180;2023-02-15T12:25:02;5.95;;;3.20;;
36449;SDS011;22475;51.390;7.180;2023-02-15T12:27:45;7.25;;;4.03;;
36449;SDS011;22475;51.390;7.180;2023-02-15T12:30:16;7.82;;;3.33;;
36449;SDS011;22475;51.390;7.180;2023-02-15T12:32:47;7.07;;;4.68;;
36449;SDS011;22475;51.390;7.180;2023-02-15T12:35:21;7.20;;;3.92;;
36449;SDS011;22475;51.390;7.180;2023-02-15T12:37:55;4.90;;;3.53;;
36449;SDS011;22475;51.390;7.180;2023-02-15T12:42:54;14.73;;;5.50;;
36449;SDS011;22475;51.390;7.180;2023-02-15T12:45:22;11.30;;;5.57;;
36449;SDS011;22475;51.390;7.180;2023-02-15T12:50:36;6.88;;;4.38;;
36449;SDS011;22475;51.390;7.180;2023-02-15T12:53:07;5.07;;;3.80;;
36449;SDS011;22475;51.390;7.180;2023-02-15T12:55:39;8.30;;;4.50;;
36449;SDS011;22475;51.390;7.180;2023-02-15T12:58:17;4.15;;;3.50;;
36449;SDS011;22475;51.390;7.180;2023-02-15T13:00:45;6.93;;;3.42;;
36449;SDS011;22475;51.390;7.180;2023-02-15T13:03:16;6.95;;;4.25;;
36449;SDS011;22475;51.390;7.180;2023-02-15T13:05:46;8.65;;;4.50;;
36449;SDS011;22475;51.390;7.180;2023-02-15T13:08:17;9.55;;;4.90;;
36449;SDS011;22475;51.390;7.180;2023-02-15T13:10:52;9.38;;;4.97;;
36449;SDS011;22475;51.390;7.180;2023-02-15T13:13:21;9.07;;;5.05;;
36449;SDS011;22475;51.390;7.180;2023-02-15T13:15:51;4.77;;;3.80;;
36449;SDS011;22475;51.390;7.180;2023-02-15T13:18:23;8.68;;;4.68;;
36449;SDS011;22475;51.390;7.180;2023-02-15T13:20:57;4.35;;;3.40;;
36449;SDS011;22475;51.390;7.180;2023-02-15T13:23:35;3.55;;;2.92;;
36449;SDS011;22475;51.390;7.180;2023-02-15T13:26:04;5.38;;;2.90;;
36449;SDS011;22475;51.390;7.180;2023-02-15T13:28:37;6.05;;;3.13;;
36449;SDS011;22475;51.390;7.180;2023-02-15T13:31:11;11.95;;;5.57;;
36449;SDS011;22475;51.390;7.180;2023-02-15T13:33:39;7.53;;;3.75;;
36449;SDS011;22475;51.390;7.180;2023-02-15T13:36:12;7.03;;;3.40;;
36449;SDS011;22475;51.390;7.180;2023-02-15T13:38:50;6.00;;;3.53;;
36449;SDS011;22475;51.390;7.180;2023-02-15T13:41:30;4.72;;;3.13;;
36449;SDS011;22475;51.390;7.180;2023-02-15T13:44:03;5.85;;;2.72;;
36449;SDS011;22475;51.390;7.180;2023-02-15T13:46:57;3.67;;;2.92;;
36449;SDS011;22475;51.390;7.180;2023-02-15T13:49:34;6.82;;;4.93;;
36449;SDS011;22475;51.390;7.180;2023-02-15T13:52:16;4.90;;;3.22;;
36449;SDS011;22475;51.390;7.180;2023-02-15T13:54:53;6.05;;;3.10;;
36449;SDS011;22475;51.390;7.180;2023-02-15T14:00:28;6.20;;;3.70;;
36449;SDS011;22475;51.390;7.180;2023-02-15T14:03:05;4.55;;;3.28;;
36449;SDS011;22475;51.390;7.180;2023-02-15T14:06:06;5.00;;;3.40;;
36449;SDS011;22475;51.390;7.180;2023-02-15T14:08:49;5.18;;;3.53;;
36449;SDS011;22475;51.390;7.180;2023-02-15T14:11:26;4.20;;;3.00;;
36449;SDS011;22475;51.390;7.180;2023-02-15T14:14:02;21.90;;;6.63;;
36449;SDS011;22475;51.390;7.180;2023-02-15T14:16:45;4.90;;;2.83;;
36449;SDS011;22475;51.390;7.180;2023-02-15T14:19:20;3.40;;;2.75;;
36449;SDS011;22475;51.390;7.180;2023-02-15T14:21:52;5.07;;;3.47;;
36449;SDS011;22475;51.390;7.180;2023-02-15T14:24:27;11.80;;;4.82;;
36449;SDS011;22475;51.390;7.180;2023-02-15T14:27:04;3.33;;;3.03;;
36449;SDS011;22475;51.390;7.180;2023-02-15T14:32:25;4.65;;;2.78;;
36449;SDS011;22475;51.390;7.180;2023-02-15T14:34:56;3.47;;;2.63;;
36449;SDS011;22475;51.390;7.180;2023-02-15T14:37:29;3.85;;;3.15;;
36449;SDS011;22475;51.390;7.180;2023-02-15T14:40:08;6.07;;;3.40;;
36449;SDS011;22475;51.390;7.180;2023-02-15T14:43:00;2.33;;;2.13;;
36449;SDS011;22475;51.390;7.180;2023-02-15T14:45:34;17.85;;;6.35;;
36449;SDS011;22475;51.390;7.180;2023-02-15T14:48:09;3.50;;;2.78;;
36449;SDS011;22475;51.390;7.180;2023-02-15T14:50:44;5.55;;;2.80;;
36449;SDS011;22475;51.390;7.180;2023-02-15T14:56:12;3.95;;;2.92;;
36449;SDS011;22475;51.390;7.180;2023-02-15T14:59:00;4.47;;;3.10;;
36449;SDS011;22475;51.390;7.180;2023-02-15T15:01:42;2.65;;;2.28;;
36449;SDS011;22475;51.390;7.180;2023-02-15T15:04:22;12.93;;;6.13;;
36449;SDS011;22475;51.390;7.180;2023-02-15T15:06:57;3.70;;;3.33;;
36449;SDS011;22475;51.390;7.180;2023-02-15T15:09:29;4.18;;;2.65;;
36449;SDS011;22475;51.390;7.180;2023-02-15T15:12:12;3.25;;;2.53;;
36449;SDS011;22475;51.390;7.180;2023-02-15T15:14:41;4.93;;;3.10;;
36449;SDS011;22475;51.390;7.180;2023-02-15T15:17:12;4.97;;;3.58;;
36449;SDS011;22475;51.390;7.180;2023-02-15T15:20:01;5.07;;;3.30;;
36449;SDS011;22475;51.390;7.180;2023-02-15T15:22:32;3.72;;;2.40;;
36449;SDS011;22475;51.390;7.180;2023-02-15T15:25:00;2.97;;;2.13;;
36449;SDS011;22475;51.390;7.180;2023-02-15T15:33:44;4.57;;;2.80;;
36449;SDS011;22475;51.390;7.180;2023-02-15T15:39:39;5.30;;;2.97;;
36449;SDS011;22475;51.390;7.180;2023-02-15T15:42:32;2.80;;;2.33;;
36449;SDS011;22475;51.390;7.180;2023-02-15T15:48:32;4.03;;;2.58;;
36449;SDS011;22475;51.390;7.180;2023-02-15T15:51:04;2.67;;;2.35;;